Latest Weather Observations for Sheoaks

IDV60801

Issued at 4:22 pm EST Sunday 11 April 2021 (issued every 10 minutes, with the page automatically refreshed every 10 minutes)

About weather observations | Map of weather stations | Latest weather observations for VIC | Other Formats
Station Details ID: 087168 Name: SHEOAKS Lat: -37.91 Lon: 144.13 Height: 236.7 m
Data from the previous 72 hours. | See also: Recent months at Sheoaks
Date/Time
EST
Temp
°C
App
Temp
°C
Dew
Point
°C
Rel
Hum
%
Delta-T
°C
Wind Press
QNH
hPa
Press
MSL
hPa
Rain since
9am
mm
Dir  Spd
km/h
Gust
km/h
Spd
kts
Gust
kts
11/04:00pm 11.6 7.1 4.3 61 3.3 SW 17 30 9 16 1018.5 1018.3 0.0
11/03:30pm 12.2 5.9 3.7 56 3.8 SSW 26 43 14 23 1018.2 1018.0 0.0
11/03:16pm 12.8 6.0 2.9 51 4.4 SW 28 46 15 25 1017.7 1017.5 0.0
11/03:00pm 12.8 6.5 3.7 54 4.1 SSW 26 44 14 24 1017.8 1017.6 0.0
11/02:30pm 13.0 7.2 4.2 55 4.1 SSW 24 39 13 21 1017.2 1017.0 0.0
11/02:00pm 11.3 4.7 4.3 62 3.2 SSW 28 46 15 25 1017.1 1016.9 0.0
11/01:30pm 13.2 7.6 3.6 52 4.4 SSW 22 39 12 21 1016.8 1016.6 0.0
11/01:00pm 12.1 5.8 3.6 56 3.8 SW 26 43 14 23 1016.9 1016.7 0.0
11/12:33pm 11.4 4.6 3.2 57 3.6 SW 28 48 15 26 1017.0 1016.8 0.0
11/12:30pm 12.2 5.7 2.4 51 4.3 SW 26 48 14 26 1016.8 1016.6 0.0
11/12:00pm 12.5 6.7 4.2 57 3.8 SW 24 37 13 20 1016.7 1016.5 0.0
11/11:30am 11.7 4.6 3.5 57 3.7 SW 30 50 16 27 1016.6 1016.4 0.0
11/11:16am 11.6 4.8 3.1 56 3.8 SSW 28 57 15 31 1016.4 1016.2 0.0
11/11:00am 10.4 4.2 4.5 67 2.7 SW 26 41 14 22 1016.6 1016.4 0.0
11/10:30am 11.0 3.9 3.8 61 3.2 SW 30 48 16 26 1016.2 1016.0 0.0
11/10:28am 11.0 4.3 3.8 61 3.2 SW 28 48 15 26 1016.1 1015.9 0.0
11/10:00am 10.3 4.6 4.7 68 2.5 WSW 24 39 13 21 1016.2 1016.0 0.0
11/09:30am 10.0 5.3 5.2 72 2.2 SW 19 32 10 17 1015.8 1015.6 0.0
11/09:00am 8.9 4.3 5.5 79 1.6 WSW 19 32 10 17 1015.6 1015.4 7.4
11/08:30am 8.3 3.6 5.1 80 1.4 WSW 19 28 10 15 1015.4 1015.2 7.4
11/08:00am 7.3 2.9 4.8 84 1.1 W 17 24 9 13 1014.8 1014.6 7.4
11/07:30am 6.9 2.1 4.6 85 1.0 W 19 28 10 15 1014.4 1014.2 7.4
11/07:00am 6.2 1.6 3.7 84 1.1 W 17 22 9 12 1013.9 1013.7 7.4
11/06:30am 6.5 1.5 3.8 83 1.2 W 19 32 10 17 1013.6 1013.4 7.4
11/06:00am 6.2 1.1 3.9 85 1.0 W 20 30 11 16 1013.1 1012.9 7.4
11/05:30am 5.8 0.6 3.8 87 0.9 W 20 33 11 18 1012.7 1012.5 7.4
11/05:00am 5.8 0.6 3.8 87 0.9 W 20 32 11 17 1012.6 1012.4 7.4
11/04:30am 6.0 1.1 4.0 87 0.9 W 19 33 10 18 1012.1 1011.8 7.4
11/04:00am 5.9 1.0 3.9 87 0.9 WNW 19 32 10 17 1011.8 1011.5 7.2
11/03:30am 5.8 1.2 3.8 87 0.9 WNW 17 26 9 14 1011.6 1011.3 7.2
11/03:00am 5.8 0.8 3.6 86 0.9 W 19 32 10 17 1012.0 1011.7 7.0
11/02:30am 5.6 -0.4 3.1 84 1.1 W 24 37 13 20 1011.2 1011.0 6.8
11/02:00am 6.1 0.1 3.4 83 1.1 W 24 33 13 18 1011.3 1011.1 6.8
11/01:30am 6.4 0.5 3.9 84 1.1 W 24 33 13 18 1011.2 1011.0 6.8
11/01:00am 6.2 1.1 4.0 86 1.0 W 20 32 11 17 1011.0 1010.8 6.8
11/12:30am 6.4 0.9 4.2 86 1.0 W 22 39 12 21 1010.9 1010.7 6.8
11/12:00am 6.4 1.4 4.4 87 0.9 W 20 33 11 18 1010.8 1010.6 6.8
 
Date/Time
EST
Temp
°C
App
Temp
°C
Dew
Point
°C
Rel
Hum
%
Delta-T
°C
Wind Press
QNH
hPa
Press
MSL
hPa
Rain since
9am
mm
Dir  Spd
km/h
Gust
km/h
Spd
kts
Gust
kts
10/11:30pm 6.3 1.4 4.3 87 0.9 W 19 28 10 15 1010.9 1010.7 6.8
10/11:00pm 6.8 1.5 4.8 87 0.9 W 22 37 12 20 1010.8 1010.6 6.6
10/10:30pm 6.3 1.5 4.6 89 0.7 WNW 19 30 10 16 1010.6 1010.4 6.6
10/10:00pm 6.6 1.7 5.1 90 0.7 WNW 20 32 11 17 1010.6 1010.4 6.6
10/09:30pm 6.8 2.2 5.4 91 0.6 W 19 28 10 15 1010.8 1010.6 6.6
10/09:00pm 7.0 2.7 5.3 89 0.8 WNW 17 24 9 13 1010.7 1010.5 5.0
10/08:30pm 6.6 1.6 4.8 88 0.8 W 20 28 11 15 1010.5 1010.3 4.6
10/08:00pm 7.6 2.0 5.2 85 1.1 W 24 39 13 21 1010.6 1010.4 3.6
10/07:30pm 8.7 3.0 4.7 76 1.8 W 24 43 13 23 1009.7 1009.5 2.8
10/07:00pm 8.0 4.5 5.6 85 1.1 WNW 13 17 7 9 1009.4 1009.2 2.8
10/06:30pm 7.8 4.6 5.3 84 1.1 WNW 11 17 6 9 1009.5 1009.3 2.8
10/06:00pm 8.0 3.7 5.3 83 1.2 W 17 30 9 16 1009.7 1009.5 2.8
10/05:36pm 10.4 5.2 5.6 72 2.2 WSW 22 50 12 27 1009.6 1009.4 2.2
10/05:30pm 10.9 6.5 6.5 74 2.1 W 19 30 10 16 1009.2 1009.0 2.2
10/05:00pm 10.4 6.0 6.4 76 1.9 W 19 32 10 17 1009.0 1008.8 2.2
10/04:30pm 8.9 2.9 5.3 78 1.6 SW 26 46 14 25 1009.0 1008.8 2.2
10/04:00pm 10.5 6.0 7.0 79 1.7 W 20 35 11 19 1008.8 1008.6 2.0
10/03:30pm 10.7 6.1 6.5 75 2.0 WSW 20 39 11 21 1008.9 1008.7 2.0
10/03:16pm 12.3 5.9 5.0 61 3.4 WSW 28 48 15 26 1008.7 1008.4 2.0
10/03:00pm 13.1 6.8 5.8 61 3.5 WSW 28 44 15 24 1008.2 1007.9 2.0
10/02:30pm 13.7 7.8 5.8 59 3.8 WSW 26 46 14 25 1008.1 1007.8 2.0
10/02:00pm 13.1 7.6 5.8 61 3.5 WSW 24 39 13 21 1008.1 1007.8 2.0
10/01:44pm 14.6 7.9 3.7 48 5.0 W 28 56 15 30 1007.8 1007.5 2.0
10/01:30pm 14.9 8.3 4.3 49 5.0 WSW 28 44 15 24 1007.8 1007.5 2.0
10/01:05pm 13.4 6.7 5.8 60 3.6 SW 30 48 16 26 1008.2 1007.9 2.0
10/01:00pm 14.4 7.7 5.5 55 4.3 WSW 30 46 16 25 1008.2 1007.9 2.0
10/12:31pm 14.8 8.0 5.1 52 4.6 WSW 30 50 16 27 1008.0 1007.7 2.0
10/12:30pm 14.7 7.5 5.2 53 4.5 WSW 32 50 17 27 1007.9 1007.6 2.0
10/12:19pm 14.1 7.9 6.0 58 3.9 WSW 28 56 15 30 1008.0 1007.7 2.0
10/12:00pm 12.7 7.7 8.2 74 2.3 WSW 24 39 13 21 1008.4 1008.1 2.0
10/11:30am 12.4 8.2 11.1 92 0.7 W 24 41 13 22 1008.1 1007.8 2.0
10/11:18am 11.5 6.3 10.2 92 0.7 W 28 57 15 31 1008.2 1007.9 2.0
10/11:00am 11.7 7.4 10.6 93 0.6 WSW 24 43 13 23 1008.2 1007.9 1.8
10/10:30am 12.4 8.2 11.1 92 0.7 W 24 35 13 19 1008.0 1007.7 1.0
10/10:00am 12.0 7.5 10.2 89 0.9 W 24 39 13 21 1007.9 1007.6 0.6
10/09:30am 13.3 9.0 9.5 78 2.0 WNW 22 35 12 19 1007.5 1007.2 0.0
10/09:00am 13.0 8.0 9.6 80 1.8 WNW 26 43 14 23 1007.4 1007.1 0.0
10/08:30am 11.9 7.4 10.0 88 1.0 WNW 24 39 13 21 1007.2 1006.9 0.0
10/08:00am 11.2 7.3 9.5 89 0.9 WNW 20 35 11 19 1007.4 1007.1 0.0
10/07:30am 11.4 6.9 8.4 82 1.5 WNW 22 35 12 19 1007.2 1006.9 0.0
10/07:00am 11.4 7.4 8.1 80 1.6 WNW 19 30 10 16 1006.9 1006.7 0.0
10/06:30am 11.3 7.2 7.8 79 1.7 WNW 19 28 10 15 1006.9 1006.7 0.0
10/06:00am 11.3 7.2 7.8 79 1.7 WNW 19 26 10 14 1006.8 1006.6 0.0
10/05:30am 11.1 7.3 7.6 79 1.7 WNW 17 30 9 16 1006.9 1006.7 0.0
10/05:00am 10.8 6.9 7.3 79 1.7 WNW 17 24 9 13 1007.0 1006.8 0.0
10/04:30am 10.9 7.0 7.2 78 1.8 WNW 17 24 9 13 1007.2 1006.9 0.0
10/04:00am 11.0 8.2 7.1 77 1.9 WNW 11 17 6 9 1007.5 1007.2 0.0
10/03:30am 10.5 8.4 6.5 76 1.9 NW 7 13 4 7 1007.6 1007.3 0.0
10/03:00am 10.8 7.9 6.4 74 2.1 NW 11 19 6 10 1007.7 1007.4 0.0
10/02:30am 11.2 8.3 6.5 73 2.2 WNW 11 17 6 9 1008.1 1007.8 0.0
10/02:00am 11.1 8.6 6.5 73 2.2 WNW 9 15 5 8 1008.4 1008.1 0.0
10/01:30am 11.3 8.0 6.2 71 2.4 W 13 19 7 10 1008.7 1008.4 0.0
10/01:00am 11.4 8.0 5.9 69 2.6 W 13 19 7 10 1008.8 1008.6 0.0
10/12:30am 11.4 8.4 6.1 70 2.5 WNW 11 15 6 8 1008.9 1008.7 0.0
10/12:00am 11.0 8.9 6.6 74 2.1 WNW 7 11 4 6 1009.2 1009.0 0.0
 
Date/Time
EST
Temp
°C
App
Temp
°C
Dew
Point
°C
Rel
Hum
%
Delta-T
°C
Wind Press
QNH
hPa
Press
MSL
hPa
Rain since
9am
mm
Dir  Spd
km/h
Gust
km/h
Spd
kts
Gust
kts
09/11:30pm 10.8 8.7 6.7 76 2.0 WNW 7 13 4 7 1009.5 1009.3 0.0
09/11:00pm 10.6 8.6 6.4 75 2.0 NW 6 9 3 5 1009.8 1009.6 0.0
09/10:30pm 10.3 8.1 6.1 75 2.0 NW 7 11 4 6 1010.3 1010.1 0.0
09/10:00pm 9.9 7.6 5.9 76 1.9 NW 7 9 4 5 1010.3 1010.1 0.0
09/09:30pm 9.4 7.0 5.2 75 1.9 NW 7 9 4 5 1010.6 1010.4 0.0
09/09:00pm 9.6 7.1 4.8 72 2.2 NW 7 9 4 5 1010.6 1010.4 0.0
09/08:30pm 9.9 7.5 4.5 69 2.4 NW 6 9 3 5 1010.3 1010.1 0.0
09/08:00pm 10.9 8.6 4.8 66 2.8 WNW 6 7 3 4 1010.2 1010.0 0.0
09/07:30pm 12.1 9.7 5.3 63 3.2 WSW 7 13 4 7 1010.2 1010.0 0.0
09/07:00pm 12.6 9.8 5.1 60 3.5 SW 9 15 5 8 1010.1 1009.9 0.0
09/06:30pm 13.0 10.2 5.2 59 3.7 SW 9 15 5 8 1009.9 1009.7 0.0
09/06:00pm 13.3 10.5 5.0 57 3.9 SW 9 15 5 8 1009.6 1009.4 0.0
09/05:30pm 14.2 10.8 4.2 51 4.7 SW 11 19 6 10 1009.6 1009.4 0.0
09/05:00pm 14.5 11.2 4.5 51 4.7 SW 11 20 6 11 1009.5 1009.3 0.0
09/04:30pm 15.5 11.4 4.3 47 5.3 SW 15 24 8 13 1009.4 1009.2 0.0
09/04:00pm 15.2 10.6 3.7 46 5.3 SW 17 28 9 15 1009.6 1009.4 0.0
09/03:30pm 16.5 12.4 4.5 45 5.7 SW 15 26 8 14 1009.5 1009.3 0.0
09/03:00pm 15.8 11.2 3.6 44 5.7 WSW 17 28 9 15 1009.4 1009.2 0.0
09/02:30pm 15.7 11.2 4.1 46 5.4 SW 17 24 9 13 1009.3 1009.1 0.0
09/02:00pm 16.2 12.1 6.3 52 4.9 SSW 17 28 9 15 1009.3 1009.1 0.0
09/01:30pm 17.5 14.2 8.1 54 4.8 SW 15 28 8 15 1009.4 1009.2 0.0
09/01:00pm 15.1 11.0 6.4 56 4.3 SSW 17 33 9 18 1009.8 1009.6 0.0
09/12:30pm 15.3 12.2 8.8 65 3.4 SSW 15 24 8 13 1010.2 1010.0 0.0
09/12:00pm 16.2 13.3 8.2 59 4.1 SW 13 24 7 13 1010.2 1010.0 0.0
09/11:30am 14.9 10.9 8.4 65 3.3 WSW 19 28 10 15 1010.3 1010.1 0.0
09/11:00am 14.2 11.5 9.0 71 2.7 WSW 13 22 7 12 1010.5 1010.3 0.0
09/10:30am 13.8 10.4 9.0 73 2.5 W 17 24 9 13 1010.4 1010.2 0.0
09/10:00am 13.4 10.1 8.0 70 2.7 WSW 15 20 8 11 1010.4 1010.2 0.0
09/09:30am 13.5 11.1 8.6 72 2.5 WSW 11 22 6 12 1010.4 1010.2 0.0
09/09:00am 12.3 10.5 9.3 82 1.5 W 9 17 5 9 1010.4 1010.2 5.0
09/08:30am 11.0 8.0 7.9 81 1.5 WSW 13 28 7 15 1010.4 1010.2 -
09/08:00am 11.5 9.0 8.0 79 1.7 W 11 15 6 8 1009.9 1009.7 -
09/07:30am 11.2 8.7 8.1 81 1.5 W 11 17 6 9 1009.4 1009.2 -
09/07:00am 11.0 8.2 8.4 84 1.3 W 13 19 7 10 1009.1 1008.9 -
09/06:30am 10.9 8.9 8.8 87 1.1 W 9 13 5 7 1008.9 1008.7 -
09/06:00am 10.9 8.5 8.8 87 1.1 W 11 17 6 9 1008.5 1008.2 -
09/05:30am 11.3 9.2 9.7 90 0.8 W 11 19 6 10 1008.2 1007.9 -
09/05:00am 11.7 9.1 10.6 93 0.6 WSW 15 24 8 13 1008.2 1007.9 -
09/04:30am 11.9 9.8 11.1 95 0.4 SW 13 22 7 12 1007.9 1007.6 -
09/04:00am 12.3 10.7 11.7 96 0.3 WSW 11 20 6 11 1007.6 1007.3 -
09/03:30am 12.4 10.5 11.8 96 0.3 WSW 13 22 7 12 1007.5 1007.2 -
09/03:00am 12.7 10.9 12.1 96 0.3 WSW 13 20 7 11 1007.3 1007.0 5.0
09/02:30am 12.8 10.2 12.0 95 0.4 WSW 17 28 9 15 1007.0 1006.8 -
09/02:00am 13.4 11.0 12.5 94 0.5 WSW 17 30 9 16 1006.7 1006.5 -
09/01:30am 14.9 13.6 13.8 93 0.6 W 13 19 7 10 1006.3 1006.1 -
09/01:00am 14.9 13.1 13.4 91 0.8 WNW 15 22 8 12 1006.3 1006.1 -
09/12:30am 15.0 12.3 13.4 90 0.9 WNW 20 35 11 19 1006.6 1006.4 -
09/12:00am 15.4 13.8 12.7 84 1.5 W 13 20 7 11 1006.7 1006.5 -
 
Date/Time
EST
Temp
°C
App
Temp
°C
Dew
Point
°C
Rel
Hum
%
Delta-T
°C
Wind Press
QNH
hPa
Press
MSL
hPa
Rain since
9am
mm
Dir  Spd
km/h
Gust
km/h
Spd
kts
Gust
kts
08/11:30pm 16.5 14.5 11.6 73 2.7 W 13 24 7 13 1006.7 1006.5 -
08/11:00pm 17.2 15.5 11.2 68 3.3 WNW 11 19 6 10 1006.4 1006.2 -
08/10:30pm 17.6 16.1 10.7 64 3.7 WNW 9 15 5 8 1006.6 1006.4 -
08/10:00pm 17.8 16.2 10.2 61 4.1 WNW 9 15 5 8 1007.0 1006.8 -
08/09:30pm 18.0 16.6 9.4 57 4.6 W 7 13 4 7 1007.0 1006.8 -
08/09:00pm 18.4 16.0 8.7 53 5.1 WSW 11 20 6 11 1007.2 1006.9 0.0
08/08:30pm 19.7 17.0 7.4 45 6.3 W 11 17 6 9 1007.0 1006.8 -
08/08:00pm 20.5 16.9 6.8 41 7.0 W 15 26 8 14 1006.9 1006.7 -
08/07:30pm 21.2 18.3 6.3 38 7.6 WSW 11 19 6 10 1006.6 1006.4 -
08/07:00pm 22.3 18.9 6.1 35 8.3 WSW 13 24 7 13 1006.4 1006.2 -
08/06:30pm 23.1 20.3 5.1 31 9.1 NW 9 13 5 7 1005.7 1005.5 -
08/06:00pm 23.9 21.1 5.3 30 9.5 NW 9 15 5 8 1005.5 1005.3 -
08/05:30pm 24.6 21.5 5.4 29 9.8 NW 11 20 6 11 1005.6 1005.4 -
08/05:00pm 25.4 20.7 5.1 27 10.4 NW 19 35 10 19 1005.7 1005.5 -
08/04:30pm 26.5 22.5 6.5 28 10.6 NW 17 30 9 16 1005.6 1005.4 -

Other formats

Comma delimited format used in spreadsheet applications
http://www.bom.gov.au/fwo/IDV60801/IDV60801.94863.axf

JavaScript Object Notation format (JSON) in row-major order
http://www.bom.gov.au/fwo/IDV60801/IDV60801.94863.json

Data quality

Most of these data are generated automatically and are frequently updated. Quality checks on data are not normally performed. It is possible for incorrect values to appear. Refer to information at About Latest Weather Observations and please check the disclaimer before using these data.